Latest Weather Observations for Barimunya

IDW60801

Issued at 8:32 pm WST Friday 22 May 2015 (issued every 30 minutes, with the page automatically refreshed every 10 minutes)

About weather observations | Map of weather stations | Latest weather observations for WA | Other Formats
Station Details ID: 505053 Name: BARIMUNYA Lat: -22.67 Lon: 119.16 Height: 629.17 m
Data from the previous 72 hours. | See also: Recent months for locations in Western Australia
Date/Time
WST
Temp
°C
App
Temp
°C
Dew
Point
Rel
Hum
%
Delta-T
°C
Wind Press
QNH
hPa
Press
MSL
hPa
Rain
since 9 am
mm
Dir
 
Spd
km/h
Gust
km/h
Spd
kts
Gust
kts
22/08:30pm 17.2 17.0 15.7 91 0.9 NNE 11 13 6 7 1020.6 1018.2 11.6
22/08:00pm 17.4 17.0 15.2 87 1.3 NNE 11 17 6 9 1020.4 1018.0 11.6
22/07:38pm 17.4 16.1 15.7 90 1.0 NE 17 22 9 12 1020.1 1017.6 11.6
22/07:30pm 17.2 15.6 15.9 92 0.8 NE 19 22 10 12 1020.3 1017.9 11.4
22/07:14pm 17.2 15.8 15.5 90 1.0 N 17 26 9 14 1021.4 1018.9 6.4
22/07:00pm 17.7 17.4 15.5 87 1.3 NE 11 17 6 9 1020.4 1018.0 2.6
22/06:30pm 19.1 18.1 15.6 80 2.1 NNE 15 20 8 11 1020.4 1018.0 1.2
22/06:00pm 19.8 19.1 15.4 76 2.7 ENE 13 19 7 10 1019.7 1017.2 1.0
22/05:30pm 19.8 19.2 15.7 77 2.5 NE 13 15 7 8 1019.6 1017.1 1.0
22/05:00pm 19.9 19.3 15.7 77 2.6 NE 13 19 7 10 1019.5 1017.0 1.0
22/04:30pm 20.0 18.9 15.2 74 2.9 NE 15 22 8 12 1019.4 1016.9 1.0
22/04:00pm 20.3 19.6 15.3 73 3.0 ENE 13 22 7 12 1019.5 1017.0 1.0
22/03:30pm 20.7 18.6 14.8 69 3.6 ENE 19 24 10 13 1019.3 1016.8 1.0
22/03:00pm 21.2 20.5 15.5 70 3.5 ENE 13 19 7 10 1019.4 1016.9 0.8
22/02:30pm 20.8 19.0 15.4 71 3.3 ENE 19 24 10 13 1019.3 1016.8 0.8
22/02:00pm 20.4 18.9 15.4 73 3.0 ENE 17 24 9 13 1019.7 1017.2 0.8
22/01:30pm 19.4 17.8 15.1 76 2.6 E 17 22 9 12 1020.1 1017.6 0.8
22/01:00pm 20.4 18.6 14.5 69 3.5 E 17 26 9 14 1020.4 1018.0 0.8
22/12:30pm 18.6 17.6 15.7 83 1.8 ESE 15 20 8 11 1020.8 1018.3 0.8
22/12:00pm 17.9 17.5 16.1 89 1.1 ESE 13 17 7 9 1021.4 1018.9 0.8
22/11:30am 17.5 17.0 16.0 91 0.9 E 13 17 7 9 1022.0 1019.6 0.8
22/11:00am 17.3 16.8 15.8 91 0.9 E 13 19 7 10 1022.1 1019.7 0.8
22/10:58am 17.3 16.8 15.8 91 0.9 E 13 19 7 10 1022.0 1019.6 0.8
22/10:30am 17.3 17.0 15.5 89 1.1 ESE 11 15 6 8 1022.6 1020.1 0.0
22/10:00am 16.8 16.3 15.8 94 0.6 ESE 13 17 7 9 1022.3 1019.9 0.0
22/09:30am 16.1 16.2 15.5 96 0.4 SE 9 11 5 6 1022.9 1020.4 0.0
22/09:18am 15.9 15.9 15.1 95 0.5 SE 9 13 5 7 1022.8 1020.3 0.0
22/09:00am 15.6 16.1 15.0 96 0.4 SW 6 11 3 6 1022.6 1020.1 21.8
22/08:31am 15.4 16.6 14.8 96 0.4 WSW 2 9 1 5 1022.8 1020.3 21.2
22/08:30am 15.4 16.6 14.8 96 0.4 WSW 2 9 1 5 1022.7 1020.2 21.2
22/08:12am 15.4 15.7 14.6 95 0.5 WSW 6 13 3 7 1022.2 1019.8 19.6
22/08:00am 15.5 15.3 14.7 95 0.5 SSE 9 11 5 6 1022.1 1019.7 18.6
22/07:30am 15.2 15.0 14.6 96 0.4 SE 9 13 5 7 1021.5 1019.0 18.6
22/07:00am 15.1 15.4 14.5 96 0.4 SSE 6 9 3 5 1021.4 1018.9 18.6
22/06:30am 14.8 15.8 14.2 96 0.3 SSE 2 7 1 4 1021.3 1018.8 18.6
22/06:00am 14.8 15.0 14.2 96 0.3 SSW 6 9 3 5 1021.2 1018.7 18.6
22/05:37am 14.9 15.8 14.1 95 0.5 SSW 2 6 1 3 1021.4 1018.9 18.6
22/05:30am 14.9 15.8 14.1 95 0.5 SSW 2 6 1 3 1021.3 1018.8 18.6
22/05:00am 14.9 16.3 14.3 96 0.3 CALM 0 4 0 2 1021.3 1018.8 18.6
22/04:30am 14.8 16.1 14.2 96 0.3 CALM 0 2 0 1 1020.9 1018.4 18.6
22/04:03am 14.7 14.7 14.2 97 0.3 SSW 7 9 4 5 1020.9 1018.4 18.6
22/04:00am 14.7 14.7 14.2 97 0.3 SSW 7 9 4 5 1020.9 1018.4 18.6
22/03:51am 14.6 14.6 14.1 97 0.3 SSW 7 9 4 5 1020.8 1018.3 18.4
22/03:39am 14.6 14.8 14.1 97 0.3 SW 6 9 3 5 1020.9 1018.4 18.2
22/03:30am 14.7 14.9 14.1 96 0.3 SW 6 9 3 5 1021.0 1018.5 17.0
22/03:10am 14.8 14.4 14.2 96 0.3 SW 9 11 5 6 1020.9 1018.4 16.4
22/03:00am 14.8 14.4 14.2 96 0.3 SW 9 11 5 6 1021.1 1018.6 16.2
22/02:30am 14.8 14.1 14.2 96 0.3 SW 11 15 6 8 1021.0 1018.5 15.4
22/02:00am 14.6 14.7 13.8 95 0.5 ESE 6 9 3 5 1020.6 1018.2 15.4
22/01:30am 14.7 14.8 13.9 95 0.5 ESE 6 7 3 4 1021.1 1018.6 15.4
22/01:00am 14.5 14.0 13.7 95 0.5 E 9 13 5 7 1021.2 1018.7 15.4
22/12:30am 14.6 14.0 13.6 94 0.6 ESE 9 11 5 6 1021.3 1018.8 15.4
22/12:00am 14.8 14.2 13.5 92 0.7 ENE 9 15 5 8 1021.4 1018.9 15.4
 
Date/Time
WST
Temp
°C
App
Temp
°C
Dew
Point
Rel
Hum
%
Delta-T
°C
Wind Press
QNH
hPa
Press
MSL
hPa
Rain
since 9 am
mm
Dir
 
Spd
km/h
Gust
km/h
Spd
kts
Gust
kts
21/11:30pm 14.8 15.2 13.8 94 0.6 E 4 9 2 5 1021.7 1019.3 15.4
21/11:00pm 14.5 14.3 13.5 94 0.6 ESE 7 11 4 6 1022.0 1019.6 15.2
21/10:30pm 14.5 14.0 13.7 95 0.5 E 9 15 5 8 1022.1 1019.7 14.8
21/10:00pm 14.5 13.6 13.7 95 0.5 E 11 17 6 9 1022.3 1019.9 13.4
21/09:30pm 14.5 13.2 13.7 95 0.5 SSE 13 17 7 9 1022.5 1020.0 13.4
21/09:00pm 14.4 13.8 13.4 94 0.6 S 9 13 5 7 1022.7 1020.2 13.0
21/08:30pm 14.7 15.3 13.1 90 0.9 ENE 2 11 1 6 1022.9 1020.4 11.2
21/08:00pm 14.6 13.8 13.0 90 0.9 ENE 9 11 5 6 1022.2 1019.8 11.0
21/07:30pm 14.5 13.7 13.0 91 0.9 ENE 9 15 5 8 1021.7 1019.3 11.0
21/07:00pm 14.3 14.0 13.2 93 0.6 NE 7 11 4 6 1021.8 1019.4 11.0
21/06:30pm 14.2 12.3 13.1 93 0.6 E 15 20 8 11 1021.3 1018.8 10.4
21/06:15pm 14.3 13.6 13.2 93 0.6 NNE 9 15 5 8 1022.0 1019.6 9.6
21/06:00pm 14.4 13.0 13.3 93 0.6 NE 13 22 7 12 1022.1 1019.7 9.2
21/05:50pm 14.6 12.4 13.3 92 0.7 N 17 24 9 13 1021.9 1019.5 5.4
21/05:30pm 15.5 13.4 12.4 82 1.8 NNE 15 20 8 11 1021.7 1019.3 3.0
21/05:00pm 15.6 14.1 12.0 79 2.0 NE 11 17 6 9 1021.1 1018.6 3.0
21/04:30pm 15.6 14.7 12.7 83 1.6 NE 9 15 5 8 1021.0 1018.5 3.0
21/04:00pm 15.3 13.6 12.6 84 1.5 NE 13 19 7 10 1021.0 1018.5 3.0
21/03:30pm 15.3 12.6 12.8 85 1.4 NE 19 26 10 14 1020.6 1018.2 3.0
21/03:12pm 15.1 12.2 12.4 84 1.5 NE 19 24 10 13 1020.8 1018.3 2.0
21/03:00pm 16.1 13.2 12.3 78 2.1 NNE 19 26 10 14 1021.0 1018.5 0.4
21/02:30pm 18.7 13.9 8.9 53 5.3 NNE 24 33 13 18 1020.5 1018.1 0.0
21/02:00pm 20.4 14.9 7.7 44 6.7 NE 26 35 14 19 1020.5 1018.1 0.0
21/01:30pm 21.8 17.3 6.9 38 7.9 NE 20 33 11 18 1020.3 1017.9 0.0
21/01:00pm 21.7 16.3 6.4 37 8.0 NE 24 33 13 18 1021.0 1018.5 0.0
21/12:30pm 22.5 17.6 6.7 36 8.4 NE 22 32 12 17 1021.4 1018.9 0.0
21/12:00pm 21.3 16.4 6.8 39 7.6 ENE 22 32 12 17 1022.0 1019.6 0.0
21/11:30am 21.4 16.4 6.5 38 7.8 ENE 22 32 12 17 1022.5 1020.0 0.0
21/11:00am 20.1 14.5 7.1 43 6.8 E 26 35 14 19 1022.7 1020.2 0.0
21/10:30am 19.1 14.6 6.9 45 6.3 E 20 33 11 18 1023.2 1020.8 0.0
21/10:00am 18.2 13.3 7.0 48 5.8 E 22 35 12 19 1023.3 1020.9 0.0
21/09:30am 17.4 11.7 6.6 49 5.5 ESE 26 35 14 19 1023.3 1020.9 0.0
21/09:00am 17.0 11.6 6.5 50 5.3 ESE 24 33 13 18 1023.1 1020.6 0.0
21/08:30am 16.7 11.8 6.8 52 5.1 ESE 22 30 12 16 1022.9 1020.4 0.0
21/08:00am 16.7 11.4 6.8 52 5.0 ESE 24 37 13 20 1022.8 1020.3 0.0
21/07:30am 16.6 12.3 7.0 53 4.9 ESE 19 30 10 16 1022.6 1020.1 0.0
21/07:00am 16.6 12.2 7.3 54 4.8 ESE 20 32 11 17 1022.3 1019.9 0.0
21/06:30am 16.5 12.1 7.2 54 4.8 SE 20 28 11 15 1021.6 1019.1 0.0
21/06:00am 16.4 12.0 7.3 55 4.7 ESE 20 32 11 17 1021.4 1018.9 0.0
21/05:30am 16.5 12.3 7.4 55 4.7 ESE 19 24 10 13 1020.9 1018.4 0.0
21/05:00am 16.7 12.0 7.6 55 4.7 ESE 22 32 12 17 1020.5 1018.1 0.0
21/04:30am 16.9 12.7 7.5 54 4.9 ESE 19 30 10 16 1020.8 1018.3 0.0
21/04:00am 17.3 13.5 7.6 53 5.0 ESE 17 24 9 13 1020.8 1018.3 0.0
21/03:30am 17.7 13.3 7.4 51 5.4 ESE 20 32 11 17 1020.6 1018.2 0.0
21/03:00am 17.8 13.0 7.5 51 5.4 ESE 22 33 12 18 1020.4 1018.0 0.0
21/02:30am 17.8 13.4 7.5 51 5.4 ESE 20 32 11 17 1020.5 1018.1 0.0
21/02:00am 18.2 13.4 7.3 49 5.7 ESE 22 37 12 20 1020.5 1018.1 0.0
21/01:30am 18.3 12.8 7.4 49 5.7 ESE 26 39 14 21 1020.8 1018.3 0.0
21/01:00am 18.4 12.5 7.5 49 5.7 ESE 28 37 15 20 1020.9 1018.4 0.0
21/12:30am 18.5 13.4 7.6 49 5.7 ESE 24 33 13 18 1021.0 1018.5 0.0
21/12:00am 18.8 13.3 7.6 48 5.9 ESE 26 39 14 21 1021.3 1018.8 0.0
 
Date/Time
WST
Temp
°C
App
Temp
°C
Dew
Point
Rel
Hum
%
Delta-T
°C
Wind Press
QNH
hPa
Press
MSL
hPa
Rain
since 9 am
mm
Dir
 
Spd
km/h
Gust
km/h
Spd
kts
Gust
kts
20/11:30pm 18.7 14.0 7.8 49 5.7 ESE 22 32 12 17 1021.4 1018.9 0.0
20/11:00pm 18.8 14.1 7.9 49 5.7 ESE 22 33 12 18 1021.6 1019.1 0.0
20/10:30pm 19.1 14.0 7.8 48 6.0 ESE 24 33 13 18 1021.7 1019.3 0.0
20/10:00pm 19.2 14.5 7.9 48 6.0 ESE 22 32 12 17 1021.6 1019.1 0.0
20/09:30pm 19.3 15.0 8.0 48 6.0 ESE 20 24 11 13 1021.8 1019.4 0.0
20/09:00pm 19.5 15.2 7.9 47 6.1 SE 20 28 11 15 1022.0 1019.6 0.0
20/08:30pm 20.1 15.7 7.5 44 6.7 SE 20 26 11 14 1021.7 1019.3 0.0
20/08:00pm 21.1 16.5 6.6 39 7.6 ESE 20 26 11 14 1021.7 1019.3 0.0
20/07:30pm 21.2 17.3 7.1 40 7.4 ESE 17 22 9 12 1021.3 1018.8 0.0
20/07:00pm 21.2 17.3 7.1 40 7.4 ESE 17 20 9 11 1021.1 1018.6 0.0
20/06:30pm 21.7 18.7 7.5 40 7.6 ESE 13 19 7 10 1021.0 1018.5 0.0
20/06:00pm 22.3 19.2 7.3 38 8.0 SE 13 20 7 11 1020.3 1017.9 0.0
20/05:30pm 22.9 19.6 6.6 35 8.6 ESE 13 20 7 11 1019.7 1017.2 0.0
20/05:00pm 23.8 20.6 7.0 34 9.0 ESE 13 20 7 11 1019.8 1017.3 0.0
20/04:30pm 24.0 20.7 6.3 32 9.4 ESE 13 19 7 10 1019.3 1016.8 0.0
20/04:00pm 24.3 21.0 6.6 32 9.4 E 13 20 7 11 1019.3 1016.8 0.0
20/03:30pm 24.1 20.5 6.8 33 9.2 ENE 15 20 8 11 1018.9 1016.5 0.0
20/03:00pm 24.4 20.9 7.1 33 9.3 ENE 15 20 8 11 1019.2 1016.7 0.0
20/02:30pm 24.3 20.8 7.4 34 9.1 E 15 22 8 12 1019.2 1016.7 0.0
20/02:00pm 23.9 20.3 6.7 33 9.1 ENE 15 24 8 13 1019.1 1016.6 0.0
20/01:30pm 23.1 19.1 6.8 35 8.7 E 17 26 9 14 1019.3 1016.8 0.0
20/01:00pm 23.3 20.4 8.2 38 8.2 E 13 22 7 12 1019.4 1016.9 0.0
20/12:30pm 22.9 18.9 8.2 39 8.0 ENE 19 26 10 14 1020.0 1017.5 0.0
20/12:00pm 22.5 18.7 9.0 42 7.4 E 19 32 10 17 1020.1 1017.6 0.0
20/11:30am 22.2 18.6 8.3 41 7.5 E 17 22 9 12 1020.4 1018.0 0.0
20/11:00am 21.8 18.4 9.0 44 7.0 ESE 17 26 9 14 1020.8 1018.3 0.0
20/10:30am 21.2 17.1 8.8 45 6.8 E 20 26 11 14 1020.9 1018.4 0.0
20/10:00am 21.4 17.6 9.0 45 6.8 ESE 19 30 10 16 1021.2 1018.7 0.0
20/09:30am 20.4 16.7 9.3 49 6.1 ESE 19 24 10 13 1021.5 1019.0 0.0
20/09:00am 18.9 15.6 9.7 55 5.0 SE 17 24 9 13 1021.4 1018.9 1.2
20/08:30am 18.1 14.8 9.7 58 4.6 SE 17 19 9 10 1021.2 1018.7 1.2
20/08:00am 17.6 14.7 9.8 60 4.2 ESE 15 20 8 11 1020.9 1018.4 1.2
20/07:30am 16.7 14.3 9.9 64 3.7 SE 13 17 7 9 1020.5 1018.1 1.2
20/07:00am 16.2 13.8 10.1 67 3.3 ESE 13 17 7 9 1020.1 1017.6 1.2
20/06:30am 16.0 14.5 10.5 70 3.0 SE 9 13 5 7 1020.0 1017.5 1.2
20/06:00am 16.0 14.1 10.5 70 3.0 ESE 11 15 6 8 1019.7 1017.2 1.2
20/05:30am 16.2 14.2 10.3 68 3.2 SE 11 15 6 8 1019.5 1017.0 1.2
20/05:00am 16.3 15.2 10.6 69 3.1 SE 7 11 4 6 1019.2 1016.7 1.2
20/04:30am 16.2 15.1 10.7 70 3.0 ESE 7 13 4 7 1019.1 1016.6 1.2
20/04:00am 16.1 14.7 10.8 71 2.9 SE 9 11 5 6 1018.7 1016.2 1.2
20/03:30am 16.3 16.0 12.7 79 2.1 ENE 6 7 3 4 1018.8 1016.3 1.2
20/03:00am 16.3 16.0 12.7 79 2.1 ENE 6 9 3 5 1018.8 1016.3 1.2
20/02:30am 16.0 15.5 12.6 80 1.9 SSW 7 11 4 6 1018.8 1016.3 1.2
20/02:00am 16.2 15.6 12.2 77 2.3 SW 7 9 4 5 1019.1 1016.6 1.2
20/01:30am 16.2 15.2 12.4 78 2.2 SW 9 13 5 7 1019.7 1017.2 1.2
20/01:00am 16.7 15.8 11.4 71 3.0 ESE 7 11 4 6 1019.3 1016.8 1.2
20/12:30am 16.2 14.9 11.4 73 2.7 SE 9 11 5 6 1019.2 1016.7 1.2
20/12:00am 16.1 15.0 11.9 76 2.4 SSE 9 13 5 7 1019.5 1017.0 1.2
 
Date/Time
WST
Temp
°C
App
Temp
°C
Dew
Point
Rel
Hum
%
Delta-T
°C
Wind Press
QNH
hPa
Press
MSL
hPa
Rain
since 9 am
mm
Dir
 
Spd
km/h
Gust
km/h
Spd
kts
Gust
kts
19/11:30pm 16.2 14.7 12.0 76 2.4 SE 11 15 6 8 1019.6 1017.1 1.2
19/11:00pm 16.3 14.1 12.1 76 2.4 SSE 15 20 8 11 1019.6 1017.1 1.2
19/10:30pm 17.2 15.2 12.7 75 2.6 ESE 15 20 8 11 1019.6 1017.1 1.0
19/10:00pm 17.2 16.7 13.7 80 2.0 ESE 9 11 5 6 1019.7 1017.2 1.0
19/09:30pm 17.1 17.0 13.4 79 2.1 SSW 6 7 3 4 1019.9 1017.4 0.8
19/09:00pm 18.0 19.2 13.9 77 2.4 CALM 0 0 0 0 1019.8 1017.3 0.2

Other Formats:

Comma delimited format used in spreadsheet applications
http://www.bom.gov.au/fwo/IDW60801/IDW60801.99313.axf

JavaScript Object Notation format (JSON) in row-major order
http://www.bom.gov.au/fwo/IDW60801/IDW60801.99313.json